Time;durP1;ratioP1;P1;durP2;ratioP2;P2;SDS_P1;SDS_P2;PMS_P1;PMS_P2;Temp;Humidity;BMP_temperature;BMP_pressure;BME280_temperature;BME280_humidity;BME280_pressure;Samples;Min_cycle;Max_cycle;Signal;HPM_P1;HPM_P2
2022/03/11 00:01:07;;;;;;;8.13;3.05;;;-6.00;76.20;;;;;;5055888;28;20031;-88
2022/03/11 00:03:34;;;;;;;3.83;2.75;;;-6.00;77.00;;;;;;5056630;28;20556;-88
2022/03/11 00:06:01;;;;;;;5.38;2.92;;;-6.00;77.50;;;;;;5056061;28;20021;-87
2022/03/11 00:08:28;;;;;;;4.15;2.70;;;-6.00;76.50;;;;;;5075011;28;20099;-87
2022/03/11 00:10:55;;;;;;;5.57;3.05;;;-6.00;76.00;;;;;;5059824;28;20115;-88
2022/03/11 00:13:23;;;;;;;4.20;2.70;;;-5.90;75.90;;;;;;5060212;28;20069;-87
2022/03/11 00:15:49;;;;;;;7.05;3.05;;;-5.90;75.30;;;;;;5044196;28;20029;-87
2022/03/11 00:18:17;;;;;;;6.15;2.63;;;-6.00;74.90;;;;;;5059753;28;20028;-87
2022/03/11 00:20:42;;;;;;;4.13;2.72;;;-6.00;75.00;;;;;;5059656;28;20522;-87
2022/03/11 00:23:08;;;;;;;3.83;2.70;;;-6.10;74.50;;;;;;5043492;28;20102;-89
2022/03/11 00:25:34;;;;;;;9.23;3.38;;;-6.00;74.90;;;;;;5060354;28;20031;-87
2022/03/11 00:28:01;;;;;;;6.10;3.17;;;-6.00;75.40;;;;;;5059455;28;20045;-88
2022/03/11 00:30:28;;;;;;;4.43;2.83;;;-6.10;74.00;;;;;;5077006;28;20060;-87
2022/03/11 00:32:56;;;;;;;4.97;2.58;;;-6.00;74.60;;;;;;5077687;28;20074;-89
2022/03/11 00:35:24;;;;;;;5.35;3.15;;;-6.00;75.50;;;;;;5077092;28;20108;-88
2022/03/11 00:37:51;;;;;;;4.30;2.50;;;-6.00;74.50;;;;;;5059693;28;20047;-87
2022/03/11 00:40:17;;;;;;;9.05;3.70;;;-6.00;74.90;;;;;;5059905;28;20113;-88
2022/03/11 00:42:43;;;;;;;6.75;3.17;;;-6.00;75.40;;;;;;5042925;28;20439;-88
2022/03/11 00:45:09;;;;;;;5.05;2.97;;;-6.10;75.90;;;;;;5059191;28;20035;-88
2022/03/11 00:47:35;;;;;;;5.22;3.30;;;-6.00;75.60;;;;;;5076889;28;20032;-88
2022/03/11 00:50:02;;;;;;;5.28;2.78;;;-6.00;75.80;;;;;;5042640;28;20079;-88
2022/03/11 00:52:27;;;;;;;5.43;2.88;;;-6.00;74.80;;;;;;5059373;28;20055;-88
2022/03/11 00:54:54;;;;;;;5.80;2.53;;;-6.00;74.70;;;;;;5059460;28;20048;-87
2022/03/11 00:57:21;;;;;;;6.57;3.08;;;-5.90;75.40;;;;;;5059081;28;20031;-88
2022/03/11 00:59:48;;;;;;;8.20;3.05;;;-5.90;75.20;;;;;;5059658;28;20035;-87
2022/03/11 01:02:14;;;;;;;7.70;2.90;;;-5.90;75.60;;;;;;5042639;28;20028;-88
2022/03/11 01:04:39;;;;;;;8.48;3.30;;;-5.90;75.30;;;;;;5059114;28;20179;-87
2022/03/11 01:07:05;;;;;;;6.60;3.10;;;-5.90;74.60;;;;;;5058757;28;20028;-88
2022/03/11 01:09:31;;;;;;;6.50;2.70;;;-5.90;74.70;;;;;;5058794;28;20025;-88
2022/03/11 01:11:57;;;;;;;5.63;2.97;;;-5.80;74.00;;;;;;5042283;28;20035;-88
2022/03/11 01:14:22;;;;;;;6.78;3.33;;;-5.80;74.20;;;;;;5059105;28;20031;-88
2022/03/11 01:16:48;;;;;;;15.48;3.83;;;-5.80;73.80;;;;;;5075351;28;20044;-88
2022/03/11 01:19:14;;;;;;;10.38;3.55;;;-5.80;74.10;;;;;;5042312;28;20024;-89
2022/03/11 01:21:40;;;;;;;10.98;3.88;;;-5.80;74.00;;;;;;5076215;28;20469;-89
2022/03/11 01:24:07;;;;;;;7.70;3.03;;;-5.90;73.10;;;;;;5042338;28;20055;-87
2022/03/11 01:26:33;;;;;;;5.10;3.00;;;-5.90;74.20;;;;;;5058241;28;20025;-89
2022/03/11 01:29:00;;;;;;;5.57;2.80;;;-5.80;73.80;;;;;;5058403;28;20047;-88
2022/03/11 01:31:28;;;;;;;7.65;3.08;;;-5.70;74.00;;;;;;5076320;28;20048;-88
2022/03/11 01:33:54;;;;;;;10.57;3.70;;;-5.70;74.50;;;;;;5076538;28;20017;-88
2022/03/11 01:36:21;;;;;;;9.50;3.35;;;-5.70;73.70;;;;;;5059259;28;20036;-88
2022/03/11 01:38:47;;;;;;;11.02;3.40;;;-5.70;73.10;;;;;;5042232;28;20021;-88
2022/03/11 01:41:13;;;;;;;7.93;3.40;;;-5.70;73.20;;;;;;5076409;28;20029;-89
2022/03/11 01:44:00;;;;;;;7.00;3.10;;;-5.70;73.40;;;;;;5041732;28;20024;-88
2022/03/11 01:46:28;;;;;;;8.07;3.30;;;-5.80;73.20;;;;;;5076209;28;20028;-88
2022/03/11 01:48:55;;;;;;;6.82;3.47;;;-5.80;73.60;;;;;;5042349;28;20045;-88
2022/03/11 01:51:21;;;;;;;5.55;2.92;;;-5.90;73.70;;;;;;5041887;28;20542;-88
2022/03/11 01:53:47;;;;;;;5.70;2.85;;;-5.90;74.20;;;;;;5075995;28;20073;-88
2022/03/11 01:56:16;;;;;;;14.95;4.35;;;-5.90;75.00;;;;;;5057979;28;20021;-88
2022/03/11 01:58:46;;;;;;;9.95;3.63;;;-6.00;75.30;;;;;;5075864;28;20047;-92
2022/03/11 02:01:12;;;;;;;17.83;5.43;;;-6.00;76.00;;;;;;5041946;28;20044;-87
2022/03/11 02:03:38;;;;;;;8.68;3.40;;;-6.00;75.00;;;;;;5058115;28;20198;-87
2022/03/11 02:06:06;;;;;;;4.75;3.13;;;-6.10;74.60;;;;;;5058108;28;20459;-87
2022/03/11 02:08:34;;;;;;;8.82;3.70;;;-6.10;75.30;;;;;;5041607;28;20051;-88
2022/03/11 02:11:00;;;;;;;9.95;3.80;;;-6.10;75.90;;;;;;5057383;28;20025;-88
2022/03/11 02:13:25;;;;;;;6.13;3.03;;;-6.10;76.10;;;;;;5040932;28;20039;-90
2022/03/11 02:15:51;;;;;;;5.20;3.08;;;-6.10;76.30;;;;;;5057904;28;20052;-90
2022/03/11 02:18:17;;;;;;;11.77;4.28;;;-6.10;76.20;;;;;;5057716;28;20463;-90
2022/03/11 02:20:46;;;;;;;6.45;3.15;;;-6.00;76.10;;;;;;5057510;28;20052;-87
2022/03/11 02:23:13;;;;;;;4.63;3.17;;;-6.00;75.20;;;;;;5057881;28;20040;-92
2022/03/11 02:25:41;;;;;;;5.70;2.88;;;-6.00;75.10;;;;;;5041069;28;20482;-87
2022/03/11 02:28:07;;;;;;;9.30;3.22;;;-6.00;75.20;;;;;;5057220;28;20028;-87
2022/03/11 02:30:33;;;;;;;5.53;3.00;;;-6.00;75.50;;;;;;5074777;28;20387;-88
2022/03/11 02:32:59;;;;;;;5.78;3.10;;;-6.00;74.50;;;;;;5056201;28;20036;-90
2022/03/11 02:35:24;;;;;;;6.95;3.33;;;-6.00;73.60;;;;;;5074963;28;20387;-90
2022/03/11 02:37:50;;;;;;;10.82;3.28;;;-6.00;74.30;;;;;;5057665;28;20562;-88
2022/03/11 02:40:16;;;;;;;6.43;3.17;;;-6.00;75.10;;;;;;5057531;28;20024;-91
2022/03/11 02:42:42;;;;;;;5.68;3.00;;;-5.90;74.60;;;;;;5074907;28;20052;-88
2022/03/11 02:45:08;;;;;;;4.32;3.00;;;-5.90;75.80;;;;;;5057215;28;20043;-87
2022/03/11 02:47:34;;;;;;;6.97;3.15;;;-5.90;75.10;;;;;;5057188;28;20031;-90
2022/03/11 02:50:00;;;;;;;5.50;2.65;;;-5.90;75.10;;;;;;5056746;28;20111;-89
2022/03/11 02:52:26;;;;;;;5.05;3.00;;;-5.80;74.20;;;;;;5074430;28;20107;-88
2022/03/11 02:54:52;;;;;;;5.75;3.10;;;-5.80;74.60;;;;;;5057126;28;20031;-89
2022/03/11 02:57:18;;;;;;;6.75;3.20;;;-5.90;73.80;;;;;;5056924;28;20021;-88
2022/03/11 02:59:47;;;;;;;7.38;3.20;;;-5.90;74.20;;;;;;5057193;28;20021;-88
2022/03/11 03:02:14;;;;;;;7.32;3.20;;;-5.90;74.00;;;;;;5057009;28;20036;-88
2022/03/11 03:04:40;;;;;;;5.50;2.90;;;-6.00;72.70;;;;;;5056991;28;20032;-88
2022/03/11 03:07:07;;;;;;;5.43;3.25;;;-6.00;72.60;;;;;;5040489;28;20036;-91
2022/03/11 03:09:36;;;;;;;6.13;2.88;;;-6.00;73.10;;;;;;5074580;28;20050;-87
2022/03/11 03:12:02;;;;;;;4.55;3.10;;;-6.00;72.70;;;;;;5074576;28;20024;-92
2022/03/11 03:14:28;;;;;;;5.50;3.13;;;-6.00;73.30;;;;;;5056213;28;20031;-90
2022/03/11 03:16:54;;;;;;;4.88;2.75;;;-6.00;73.90;;;;;;5054285;28;20119;-89
2022/03/11 03:19:19;;;;;;;5.22;2.97;;;-6.00;73.90;;;;;;5074392;28;20538;-89
2022/03/11 03:21:46;;;;;;;6.55;3.30;;;-6.00;74.40;;;;;;5074106;28;20068;-90
2022/03/11 03:24:12;;;;;;;5.70;3.15;;;-6.00;74.20;;;;;;5056675;28;20028;-89
2022/03/11 03:26:39;;;;;;;5.20;2.78;;;-6.00;74.30;;;;;;5039965;28;20074;-89
2022/03/11 03:29:06;;;;;;;4.45;2.97;;;-6.00;75.00;;;;;;5056321;28;20115;-90
2022/03/11 03:31:31;;;;;;;7.63;2.80;;;-6.00;73.50;;;;;;5062928;28;20188;-90
2022/03/11 03:33:59;;;;;;;8.70;3.50;;;-5.90;73.90;;;;;;5073453;28;20084;-89
2022/03/11 03:36:24;;;;;;;8.93;4.38;;;-6.00;74.30;;;;;;5073197;28;20025;-89
2022/03/11 03:38:50;;;;;;;12.10;5.50;;;-6.10;73.40;;;;;;5074297;28;20423;-89
2022/03/11 03:41:17;;;;;;;8.95;4.90;;;-6.10;74.10;;;;;;5074164;28;20025;-90
2022/03/11 03:43:44;;;;;;;7.43;4.18;;;-6.10;74.90;;;;;;5056359;28;20077;-90
2022/03/11 03:46:11;;;;;;;7.30;3.60;;;-6.10;74.10;;;;;;5073956;28;20024;-90
2022/03/11 03:48:39;;;;;;;8.30;3.38;;;-6.10;75.10;;;;;;5073260;28;20566;-89
2022/03/11 03:51:05;;;;;;;4.15;2.67;;;-6.10;73.80;;;;;;5056166;28;20479;-90
2022/03/11 03:53:31;;;;;;;7.97;3.78;;;-6.10;74.40;;;;;;5073159;28;20028;-89
2022/03/11 03:55:56;;;;;;;6.05;3.58;;;-6.10;75.30;;;;;;5074100;28;20032;-90
2022/03/11 03:58:22;;;;;;;6.63;3.75;;;-6.10;76.40;;;;;;5072643;28;20059;-90
2022/03/11 04:00:48;;;;;;;8.70;3.28;;;-6.10;76.70;;;;;;5074201;28;20048;-90
2022/03/11 04:03:14;;;;;;;5.80;3.50;;;-6.00;76.20;;;;;;5072426;28;20498;-90
2022/03/11 04:05:41;;;;;;;5.10;3.70;;;-6.10;76.20;;;;;;5071904;28;20040;-90
2022/03/11 04:08:07;;;;;;;10.45;6.28;;;-6.20;77.20;;;;;;5072612;28;20027;-89
2022/03/11 04:10:33;;;;;;;8.95;5.38;;;-6.20;78.80;;;;;;5072510;28;20047;-89
2022/03/11 04:12:58;;;;;;;13.20;5.03;;;-6.20;78.60;;;;;;5056288;28;20060;-89
2022/03/11 04:15:24;;;;;;;17.17;7.68;;;-6.20;79.10;;;;;;5072997;28;20052;-89
2022/03/11 04:17:50;;;;;;;20.80;10.68;;;-6.30;79.40;;;;;;5072972;28;20025;-89
2022/03/11 04:20:17;;;;;;;15.15;8.18;;;-6.30;79.00;;;;;;5072634;28;20074;-89
2022/03/11 04:22:44;;;;;;;16.92;8.45;;;-6.30;79.30;;;;;;5072752;28;20028;-91
2022/03/11 04:25:11;;;;;;;7.18;4.15;;;-6.30;78.90;;;;;;5072742;28;20024;-89
2022/03/11 04:27:39;;;;;;;8.15;4.68;;;-6.30;80.90;;;;;;5072706;28;20025;-89
2022/03/11 04:30:05;;;;;;;8.38;4.38;;;-6.30;80.40;;;;;;5072827;28;20074;-90
2022/03/11 04:32:31;;;;;;;5.25;3.58;;;-6.40;79.30;;;;;;5039312;28;20044;-89
2022/03/11 04:34:58;;;;;;;12.70;4.88;;;-6.40;83.00;;;;;;5036219;28;20360;-89
2022/03/11 04:37:24;;;;;;;10.02;4.65;;;-6.50;85.20;;;;;;5036124;28;20029;-90
2022/03/11 04:39:51;;;;;;;8.70;4.47;;;-6.60;87.20;;;;;;5035464;28;20021;-89
2022/03/11 04:42:18;;;;;;;14.23;6.63;;;-6.70;90.00;;;;;;5035845;28;20548;-89
2022/03/11 04:44:43;;;;;;;20.00;8.32;;;-6.70;91.50;;;;;;5035571;28;20434;-89
2022/03/11 04:47:09;;;;;;;26.13;10.82;;;-6.70;91.90;;;;;;5053069;28;20029;-89
2022/03/11 04:49:35;;;;;;;31.33;13.95;;;-6.60;91.40;;;;;;5035676;28;20071;-89
2022/03/11 04:52:00;;;;;;;27.58;12.73;;;-6.60;90.90;;;;;;5035597;28;20052;-89
2022/03/11 04:54:26;;;;;;;10.95;5.10;;;-6.60;91.00;;;;;;5035789;28;20379;-89
2022/03/11 04:56:53;;;;;;;16.10;7.95;;;-6.60;90.50;;;;;;5056688;28;20028;-90
2022/03/11 04:59:20;;;;;;;9.77;5.47;;;-6.60;91.10;;;;;;5039046;28;20051;-89
2022/03/11 05:01:46;;;;;;;29.15;5.88;;;-6.40;91.80;;;;;;5039586;28;20029;-89
2022/03/11 05:04:12;;;;;;;14.00;5.75;;;-6.50;90.70;;;;;;5039260;28;20025;-89
2022/03/11 05:06:38;;;;;;;8.20;4.70;;;-6.50;91.90;;;;;;5039322;28;20035;-89
2022/03/11 05:09:04;;;;;;;12.85;4.97;;;-6.50;92.00;;;;;;5056836;28;20110;-89
2022/03/11 05:11:32;;;;;;;12.02;5.18;;;-6.50;91.30;;;;;;5038886;28;20031;-89
2022/03/11 05:13:59;;;;;;;16.42;5.65;;;-6.50;91.40;;;;;;5056807;28;20037;-89
2022/03/11 05:16:24;;;;;;;11.82;5.65;;;-6.50;91.10;;;;;;5039159;28;20091;-89
2022/03/11 05:18:53;;;;;;;19.92;7.32;;;-6.40;91.80;;;;;;5056104;28;20017;-89
2022/03/11 05:21:20;;;;;;;21.40;6.97;;;-6.30;91.40;;;;;;5039008;28;20029;-89
2022/03/11 05:23:46;;;;;;;13.65;6.25;;;-6.30;91.40;;;;;;5038946;28;20025;-90
2022/03/11 05:26:28;;;;;;;24.42;8.70;;;-6.40;91.20;;;;;;5039089;28;20021;-90
2022/03/11 05:28:59;;;;;;;9.50;4.65;;;-6.60;90.40;;;;;;5056534;28;20510;-91
2022/03/11 05:31:26;;;;;;;8.18;4.65;;;-6.50;90.90;;;;;;5065309;28;20469;-89
2022/03/11 05:33:52;;;;;;;28.85;6.30;;;-6.50;90.60;;;;;;5058459;28;20028;-90
2022/03/11 05:36:18;;;;;;;7.75;4.18;;;-6.40;90.80;;;;;;5058190;28;20021;-90
2022/03/11 05:38:45;;;;;;;8.88;4.70;;;-6.30;91.90;;;;;;5058277;28;20031;-89
2022/03/11 05:41:12;;;;;;;9.65;4.55;;;-6.20;92.40;;;;;;5041836;28;20034;-90
2022/03/11 05:43:38;;;;;;;10.77;5.03;;;-6.20;92.10;;;;;;5058231;28;20020;-90
2022/03/11 05:46:04;;;;;;;14.27;5.95;;;-6.30;92.10;;;;;;5076057;28;20530;-91
2022/03/11 05:48:31;;;;;;;7.10;4.43;;;-6.30;93.90;;;;;;5058554;28;20024;-90
2022/03/11 05:50:57;;;;;;;8.32;4.55;;;-6.30;93.10;;;;;;5058207;28;20027;-91
2022/03/11 05:53:23;;;;;;;9.05;4.90;;;-6.20;93.20;;;;;;5058151;28;20486;-91
2022/03/11 05:55:49;;;;;;;18.33;7.35;;;-6.20;93.90;;;;;;5057939;28;20024;-91
2022/03/11 05:58:16;;;;;;;19.13;6.18;;;-6.20;93.90;;;;;;5058145;28;20031;-93
2022/03/11 06:00:42;;;;;;;47.92;6.88;;;-6.20;95.50;;;;;;5057673;28;20112;-91
2022/03/11 06:03:07;;;;;;;14.30;6.85;;;-6.20;95.10;;;;;;5057692;28;20062;-90
2022/03/11 06:05:34;;;;;;;14.55;5.60;;;-6.10;98.50;;;;;;5076215;28;20082;-91
2022/03/11 06:07:59;;;;;;;37.05;14.70;;;-6.10;98.70;;;;;;5058000;28;20038;-90
2022/03/11 06:10:25;;;;;;;16.65;7.85;;;-6.10;99.90;;;;;;5057710;28;20032;-90
2022/03/11 06:12:51;;;;;;;22.60;12.48;;;-6.00;99.90;;;;;;5041071;28;20024;-90
2022/03/11 06:15:17;;;;;;;27.30;14.43;;;-6.00;99.90;;;;;;5057938;28;20036;-90
2022/03/11 06:17:43;;;;;;;20.52;8.43;;;-5.90;99.90;;;;;;5057687;28;20025;-91
2022/03/11 06:20:11;;;;;;;27.20;9.23;;;-5.90;99.90;;;;;;5057709;28;20028;-91
2022/03/11 06:22:37;;;;;;;12.73;5.53;;;-5.90;99.90;;;;;;5057660;28;20507;-91
2022/03/11 06:25:06;;;;;;;17.80;6.32;;;-6.00;99.90;;;;;;5057812;28;20035;-91
2022/03/11 06:27:32;;;;;;;14.68;7.30;;;-6.10;99.90;;;;;;5056967;28;20055;-91
2022/03/11 06:29:57;;;;;;;10.35;6.20;;;-6.00;99.90;;;;;;5057245;28;20386;-90
2022/03/11 06:32:23;;;;;;;12.35;6.10;;;-6.00;99.90;;;;;;5070596;28;20525;-90
2022/03/11 06:34:49;;;;;;;24.63;9.38;;;-5.90;99.90;;;;;;5075286;28;20056;-91
2022/03/11 06:37:15;;;;;;;10.50;6.10;;;-6.00;99.90;;;;;;5074082;28;20027;-90
2022/03/11 06:39:41;;;;;;;54.05;23.35;;;-6.00;99.90;;;;;;5074900;28;20088;-90
2022/03/11 06:42:07;;;;;;;63.80;25.63;;;-5.90;99.90;;;;;;5073710;28;20028;-90
2022/03/11 06:44:33;;;;;;;50.38;24.15;;;-6.00;99.90;;;;;;5073398;28;20032;-91
2022/03/11 06:47:00;;;;;;;28.80;13.38;;;-6.00;99.90;;;;;;5074146;28;20028;-91
2022/03/11 06:49:25;;;;;;;17.63;11.02;;;-5.90;99.90;;;;;;5073897;28;20024;-90
2022/03/11 06:51:51;;;;;;;24.77;9.88;;;-5.90;99.90;;;;;;5073581;28;20020;-91
2022/03/11 06:54:18;;;;;;;16.77;8.55;;;-5.80;99.90;;;;;;5073360;28;20025;-91
2022/03/11 06:56:44;;;;;;;11.30;6.60;;;-6.00;99.90;;;;;;5074893;28;20035;-90
2022/03/11 06:59:10;;;;;;;22.05;8.98;;;-6.10;99.90;;;;;;5074601;28;20055;-91
2022/03/11 07:01:36;;;;;;;25.92;11.15;;;-6.10;99.90;;;;;;5057154;28;20056;-90
2022/03/11 07:04:02;;;;;;;29.70;11.00;;;-6.20;99.90;;;;;;5057387;28;20559;-91
2022/03/11 07:06:28;;;;;;;41.97;13.07;;;-6.10;99.90;;;;;;5073717;28;20051;-91
2022/03/11 07:08:54;;;;;;;38.22;11.80;;;-6.20;99.90;;;;;;5073844;28;20024;-92
2022/03/11 07:11:20;;;;;;;18.95;7.65;;;-6.10;99.90;;;;;;5072917;28;20025;-90
2022/03/11 07:13:45;;;;;;;38.72;11.43;;;-6.30;99.90;;;;;;5073122;28;20406;-91
2022/03/11 07:16:12;;;;;;;45.58;8.73;;;-6.30;99.90;;;;;;5073529;28;20024;-91
2022/03/11 07:18:38;;;;;;;22.63;9.65;;;-6.40;99.90;;;;;;5072660;28;20028;-91
2022/03/11 07:21:05;;;;;;;24.30;8.50;;;-6.50;99.90;;;;;;5072777;28;20027;-91
2022/03/11 07:23:30;;;;;;;35.25;17.73;;;-6.60;99.90;;;;;;5073024;28;20111;-91
2022/03/11 07:25:56;;;;;;;27.90;11.88;;;-6.50;99.90;;;;;;5073473;28;20399;-91
2022/03/11 07:28:23;;;;;;;17.52;7.82;;;-6.30;99.90;;;;;;5073324;28;20102;-92
2022/03/11 07:30:49;;;;;;;21.17;7.65;;;-6.20;99.90;;;;;;5068846;28;20040;-92
2022/03/11 07:33:15;;;;;;;12.60;6.05;;;-6.00;99.90;;;;;;5036007;28;20083;-92
2022/03/11 07:35:41;;;;;;;11.23;6.10;;;-6.00;99.90;;;;;;5036480;28;20032;-92
2022/03/11 07:38:07;;;;;;;16.98;8.48;;;-5.90;99.90;;;;;;5036505;28;20029;-93
2022/03/11 07:40:35;;;;;;;13.52;6.95;;;-5.90;99.90;;;;;;5036590;28;20028;-91
2022/03/11 07:43:02;;;;;;;16.20;6.80;;;-6.00;99.90;;;;;;5036740;28;20025;-90
2022/03/11 07:45:29;;;;;;;12.73;6.10;;;-6.00;99.90;;;;;;5054241;28;20075;-91
2022/03/11 07:47:55;;;;;;;12.80;7.28;;;-5.80;99.90;;;;;;5036499;28;20025;-90
2022/03/11 07:50:21;;;;;;;17.10;7.85;;;-5.70;99.90;;;;;;5036365;28;20111;-91
2022/03/11 07:52:46;;;;;;;19.88;9.02;;;-6.00;99.90;;;;;;5036568;28;20375;-91
2022/03/11 07:55:12;;;;;;;25.67;9.65;;;-5.90;99.90;;;;;;5036116;28;20021;-91
2022/03/11 07:57:39;;;;;;;14.45;7.20;;;-6.00;99.90;;;;;;5036129;28;20021;-91
2022/03/11 08:00:10;;;;;;;22.70;9.88;;;-6.00;99.90;;;;;;5053902;28;20526;-91
2022/03/11 08:02:36;;;;;;;29.80;12.93;;;-5.80;99.90;;;;;;5036922;28;20051;-91
2022/03/11 08:05:03;;;;;;;26.17;12.43;;;-5.70;99.90;;;;;;5036085;28;20088;-90
2022/03/11 08:07:30;;;;;;;20.90;8.75;;;-5.50;99.90;;;;;;5036388;28;20025;-91
2022/03/11 08:09:58;;;;;;;15.65;7.07;;;-5.30;99.90;;;;;;5053813;28;20107;-92
2022/03/11 08:12:24;;;;;;;14.52;7.07;;;-5.20;99.90;;;;;;5036094;28;20029;-91
2022/03/11 08:14:50;;;;;;;22.42;9.32;;;-5.10;99.90;;;;;;5036611;28;20450;-93
2022/03/11 08:17:15;;;;;;;32.05;14.50;;;-5.10;99.90;;;;;;5036186;28;20021;-91
2022/03/11 08:19:41;;;;;;;14.48;7.45;;;-5.10;99.90;;;;;;5036487;28;20017;-91
2022/03/11 08:22:08;;;;;;;13.35;6.85;;;-5.20;99.80;;;;;;5036441;28;20032;-90
2022/03/11 08:24:34;;;;;;;11.57;6.82;;;-5.20;99.90;;;;;;5036236;28;20159;-93
2022/03/11 08:26:59;;;;;;;16.77;8.43;;;-5.40;99.10;;;;;;5036169;28;20063;-92
2022/03/11 08:29:31;;;;;;;14.27;8.40;;;-5.20;99.80;;;;;;5036114;28;20028;-93
2022/03/11 08:31:59;;;;;;;12.25;6.32;;;-5.10;98.70;;;;;;5039469;28;20130;-92
2022/03/11 08:34:25;;;;;;;19.00;7.57;;;-5.10;97.40;;;;;;5039477;28;20025;-92
2022/03/11 08:36:52;;;;;;;17.70;8.20;;;-5.00;98.30;;;;;;5039844;28;20395;-91
2022/03/11 08:39:18;;;;;;;11.27;6.18;;;-4.80;99.90;;;;;;5039630;28;20025;-93
2022/03/11 08:41:46;;;;;;;12.82;6.90;;;-4.60;99.90;;;;;;5039631;28;20438;-91
2022/03/11 08:44:13;;;;;;;12.90;6.75;;;-4.40;99.50;;;;;;5039461;28;20025;-91
2022/03/11 08:46:39;;;;;;;11.27;6.07;;;-4.40;98.60;;;;;;5039534;28;20068;-91
2022/03/11 08:49:07;;;;;;;10.73;5.68;;;-4.40;98.50;;;;;;5039546;28;20063;-91
2022/03/11 08:51:33;;;;;;;14.65;6.30;;;-4.80;96.10;;;;;;5039508;28;20021;-92
2022/03/11 08:53:59;;;;;;;15.70;6.38;;;-4.90;98.50;;;;;;5039715;28;20025;-91
2022/03/11 08:56:25;;;;;;;9.32;6.18;;;-5.10;97.80;;;;;;5039209;28;20365;-91
2022/03/11 08:58:52;;;;;;;12.35;6.57;;;-5.10;99.60;;;;;;5023064;28;20083;-91
2022/03/11 09:01:18;;;;;;;19.58;7.25;;;-5.00;99.30;;;;;;5039403;28;20440;-92
2022/03/11 09:03:46;;;;;;;16.08;7.97;;;-4.90;98.40;;;;;;5038997;28;20025;-91
2022/03/11 09:06:12;;;;;;;13.32;6.13;;;-4.70;99.00;;;;;;5039241;28;20046;-93
2022/03/11 09:08:38;;;;;;;18.00;5.75;;;-4.60;97.20;;;;;;5039376;28;20108;-91
2022/03/11 09:11:04;;;;;;;9.88;5.55;;;-4.50;96.70;;;;;;5038952;28;20522;-91
2022/03/11 09:13:29;;;;;;;11.88;6.50;;;-4.50;97.30;;;;;;5022804;28;20026;-91
2022/03/11 09:15:55;;;;;;;10.45;5.55;;;-4.30;99.00;;;;;;5038544;28;20029;-92
2022/03/11 09:18:21;;;;;;;8.82;5.20;;;-4.10;97.70;;;;;;5039174;28;20032;-91
2022/03/11 09:20:48;;;;;;;7.78;5.38;;;-4.00;95.60;;;;;;5038689;28;20111;-90
2022/03/11 09:23:15;;;;;;;13.55;5.40;;;-4.00;94.60;;;;;;5039551;28;20025;-91
2022/03/11 09:25:41;;;;;;;29.48;14.25;;;-3.90;94.50;;;;;;5038913;28;20025;-92
2022/03/11 09:28:10;;;;;;;14.30;7.53;;;-3.80;95.00;;;;;;5039094;28;20029;-93
2022/03/11 09:30:36;;;;;;;19.27;9.07;;;-3.70;94.70;;;;;;5058357;28;20087;-92
2022/03/11 09:33:02;;;;;;;20.27;8.50;;;-3.70;94.80;;;;;;5058487;28;20032;-92
2022/03/11 09:35:28;;;;;;;44.60;20.20;;;-3.50;95.30;;;;;;5058212;28;20392;-91
2022/03/11 09:37:54;;;;;;;29.77;13.52;;;-3.40;93.70;;;;;;5058650;28;20021;-94
2022/03/11 09:40:20;;;;;;;12.45;6.35;;;-3.30;93.40;;;;;;5058684;28;20070;-94
2022/03/11 09:42:50;;;;;;;9.05;5.57;;;-3.20;93.00;;;;;;5058048;28;20032;-93
2022/03/11 09:45:19;;;;;;;18.63;7.53;;;-3.50;92.50;;;;;;5059058;28;20024;-95
2022/03/11 09:47:46;;;;;;;18.42;7.82;;;-3.80;93.20;;;;;;5059032;28;20537;-93
2022/03/11 09:50:12;;;;;;;35.67;17.38;;;-3.80;93.50;;;;;;5058517;28;20032;-93
2022/03/11 09:52:39;;;;;;;42.78;17.67;;;-3.70;93.80;;;;;;5058365;28;20028;-93
2022/03/11 09:55:05;;;;;;;9.73;6.18;;;-3.80;92.70;;;;;;5057931;28;20047;-93
2022/03/11 09:57:31;;;;;;;14.82;8.18;;;-3.90;92.10;;;;;;5058196;28;20024;-94
2022/03/11 09:59:57;;;;;;;20.13;8.32;;;-3.90;93.00;;;;;;5058543;28;20099;-94
2022/03/11 10:02:23;;;;;;;17.73;8.65;;;-4.00;92.00;;;;;;5041308;28;20039;-95
2022/03/11 10:04:53;;;;;;;20.08;9.05;;;-3.90;92.50;;;;;;5057863;28;20033;-93
2022/03/11 10:07:31;;;;;;;12.13;7.32;;;-3.90;92.20;;;;;;5058042;28;20021;-91
2022/03/11 10:10:09;;;;;;;15.60;7.13;;;-3.90;92.10;;;;;;5057629;28;20433;-94
2022/03/11 10:12:43;;;;;;;13.80;6.78;;;-3.80;92.40;;;;;;5043183;28;20063;-92
2022/03/11 10:15:09;;;;;;;11.55;6.50;;;-3.60;92.50;;;;;;5058078;28;20032;-92
2022/03/11 10:17:47;;;;;;;9.70;5.82;;;-3.30;92.90;;;;;;5058237;28;20028;-96
2022/03/11 10:20:15;;;;;;;13.02;6.93;;;-3.30;91.30;;;;;;5056921;28;20036;-94
2022/03/11 10:22:48;;;;;;;15.15;7.55;;;-3.50;90.70;;;;;;5058052;28;20025;-94
2022/03/11 10:25:25;;;;;;;13.95;7.47;;;-3.40;91.10;;;;;;5075344;28;20047;-92
2022/03/11 10:28:18;;;;;;;14.27;6.72;;;-3.40;90.50;;;;;;5058270;28;20039;-92
2022/03/11 10:30:44;;;;;;;18.73;8.60;;;-3.40;90.40;;;;;;5052550;28;20040;-94
2022/03/11 10:33:14;;;;;;;12.45;6.80;;;-3.40;90.50;;;;;;5057585;28;20048;-92
2022/03/11 10:35:47;;;;;;;10.07;6.75;;;-3.50;90.30;;;;;;5057325;28;20021;-92
2022/03/11 10:38:21;;;;;;;18.27;8.30;;;-3.60;90.60;;;;;;5057644;28;20031;-92
2022/03/11 10:40:56;;;;;;;13.93;7.30;;;-3.50;91.40;;;;;;5057498;28;20031;-92
2022/03/11 10:43:25;;;;;;;16.17;7.65;;;-3.40;91.00;;;;;;5057497;28;20436;-93
2022/03/11 10:45:57;;;;;;;18.38;8.23;;;-3.20;91.20;;;;;;5057106;28;20044;-93
2022/03/11 10:48:44;;;;;;;15.18;7.90;;;-3.00;89.90;;;;;;5057475;28;20033;-93
2022/03/11 10:51:25;;;;;;;10.43;5.85;;;-2.90;90.30;;;;;;5057980;28;20056;-96
2022/03/11 10:53:51;;;;;;;20.40;9.45;;;-2.80;90.40;;;;;;5056924;28;20402;-94
2022/03/11 10:56:35;;;;;;;27.52;12.80;;;-2.70;90.00;;;;;;5058239;28;20078;-94
2022/03/11 10:59:22;;;;;;;21.67;10.25;;;-2.60;88.80;;;;;;5058575;28;20021;-96
2022/03/11 11:01:53;;;;;;;11.18;6.53;;;-2.60;88.90;;;;;;5057867;28;20219;-94
2022/03/11 11:04:20;;;;;;;11.73;5.72;;;-2.60;87.80;;;;;;5075267;28;20497;-95
2022/03/11 11:06:46;;;;;;;10.93;6.18;;;-2.50;90.40;;;;;;5058148;28;20024;-96
2022/03/11 11:09:15;;;;;;;15.27;8.00;;;-2.50;88.40;;;;;;5057092;28;20052;-96
2022/03/11 11:11:44;;;;;;;11.52;7.18;;;-2.40;90.10;;;;;;5057648;28;20028;-96
2022/03/11 11:14:11;;;;;;;11.23;6.88;;;-2.30;90.00;;;;;;5075613;28;20112;-96
2022/03/11 11:16:40;;;;;;;13.90;6.70;;;-2.30;88.60;;;;;;5040975;28;20024;-96
2022/03/11 11:19:15;;;;;;;9.35;6.00;;;-2.10;88.80;;;;;;5057227;28;20017;-96
2022/03/11 11:21:49;;;;;;;12.57;6.57;;;-1.80;89.70;;;;;;5058579;28;20033;-94
2022/03/11 11:24:20;;;;;;;11.57;7.07;;;-1.80;86.60;;;;;;5057448;28;20451;-96
2022/03/11 11:26:58;;;;;;;12.65;6.60;;;-2.10;86.80;;;;;;5041281;28;20032;-96
2022/03/11 11:29:30;;;;;;;11.50;6.28;;;-2.40;85.10;;;;;;5076807;28;20082;-96
2022/03/11 11:31:57;;;;;;;16.00;8.75;;;-2.30;87.80;;;;;;5067963;28;20496;-96
2022/03/11 11:34:33;;;;;;;16.48;8.07;;;-2.20;88.30;;;;;;5075652;28;20024;-96
2022/03/11 11:37:03;;;;;;;37.10;21.88;;;-2.00;87.50;;;;;;5076947;28;20048;-96
2022/03/11 11:39:47;;;;;;;15.63;8.80;;;-1.90;87.80;;;;;;5078988;28;20032;-96
2022/03/11 11:42:14;;;;;;;16.67;7.90;;;-1.90;86.90;;;;;;5077158;28;20082;-96
2022/03/11 11:44:42;;;;;;;9.70;6.65;;;-1.90;86.10;;;;;;5075335;28;20028;-96
2022/03/11 11:47:12;;;;;;;13.25;7.80;;;-1.90;84.00;;;;;;5073796;28;20032;-95
2022/03/11 11:49:43;;;;;;;;;;;-1.90;84.90;;;;;;5075099;28;20042;-96
2022/03/11 11:52:11;;;;;;;12.27;7.38;;;-1.90;85.60;;;;;;5074440;28;19919;-96
2022/03/11 11:54:41;;;;;;;11.30;6.47;;;-2.00;86.00;;;;;;5074761;28;20035;-96
2022/03/11 11:57:08;;;;;;;9.75;6.40;;;-2.00;86.10;;;;;;5074584;28;20524;-96
2022/03/11 11:59:37;;;;;;;15.18;7.00;;;-1.90;84.50;;;;;;5057741;28;20035;-96
2022/03/11 12:02:32;;;;;;;14.02;7.75;;;-1.80;86.60;;;;;;5057974;28;20045;-96
2022/03/11 12:04:59;;;;;;;11.73;6.38;;;-1.60;88.10;;;;;;5075577;28;20393;-96
2022/03/11 12:07:46;;;;;;;12.73;6.75;;;-1.70;83.90;;;;;;5077882;28;20025;-94
2022/03/11 12:10:24;;;;;;;13.90;7.38;;;-1.70;84.50;;;;;;5078225;28;20029;-96
2022/03/11 12:12:55;;;;;;;11.65;6.85;;;-1.60;85.70;;;;;;5077885;28;20166;-95
2022/03/11 12:15:22;;;;;;;;;;;-1.40;87.20;;;;;;5078554;28;20107;-93
2022/03/11 12:18:02;;;;;;;11.20;7.30;;;-1.60;83.70;;;;;;5077188;28;20407;-95
2022/03/11 12:20:35;;;;;;;15.32;8.13;;;-1.50;83.90;;;;;;5078472;28;20028;-95
2022/03/11 12:23:04;;;;;;;13.30;7.38;;;-1.50;85.20;;;;;;5077621;28;20028;-96
2022/03/11 12:25:44;;;;;;;10.45;6.20;;;-1.50;83.10;;;;;;5077403;28;20082;-95
2022/03/11 12:28:28;;;;;;;27.48;16.02;;;-1.60;83.30;;;;;;5076762;28;20031;-96
2022/03/11 12:30:55;;;;;;;23.63;11.05;;;-1.50;85.00;;;;;;5078139;28;20032;-95
2022/03/11 12:33:33;;;;;;;11.98;7.03;;;-1.40;84.20;;;;;;5060540;28;20102;-95
2022/03/11 12:36:00;;;;;;;12.65;6.78;;;-1.30;85.40;;;;;;5059943;28;20056;-96
2022/03/11 12:38:28;;;;;;;11.70;6.60;;;-1.30;85.60;;;;;;5060287;28;20024;-96
2022/03/11 12:41:00;;;;;;;11.65;6.45;;;-1.10;85.40;;;;;;5059892;28;20463;-95
2022/03/11 12:43:28;;;;;;;11.35;6.78;;;-1.10;83.50;;;;;;5059854;28;20033;-95